sensor_id;sensor_type;location;lat;lon;timestamp;pressure;altitude;pressure_sealevel;temperature;humidity
21779;BME280;11050;52.222;20.916;2022-08-19T00:01:33;99796.88;;;24.25;87.26
21779;BME280;11050;52.222;20.916;2022-08-19T00:04:02;99795.16;;;24.21;87.29
21779;BME280;11050;52.222;20.916;2022-08-19T00:06:30;99797.16;;;24.20;87.72
21779;BME280;11050;52.222;20.916;2022-08-19T00:08:57;99797.16;;;24.20;87.15
21779;BME280;11050;52.222;20.916;2022-08-19T00:11:24;99791.53;;;24.20;87.51
21779;BME280;11050;52.222;20.916;2022-08-19T00:13:52;99790.63;;;24.16;87.44
21779;BME280;11050;52.222;20.916;2022-08-19T00:16:19;99791.44;;;24.17;87.23
21779;BME280;11050;52.222;20.916;2022-08-19T00:18:47;99788.25;;;24.18;87.94
21779;BME280;11050;52.222;20.916;2022-08-19T00:21:14;99798.56;;;24.14;87.81
21779;BME280;11050;52.222;20.916;2022-08-19T00:23:41;99791.19;;;24.10;87.74
21779;BME280;11050;52.222;20.916;2022-08-19T00:26:10;99791.19;;;24.10;87.90
21779;BME280;11050;52.222;20.916;2022-08-19T00:28:36;99791.94;;;24.07;88.38
21779;BME280;11050;52.222;20.916;2022-08-19T00:31:05;99795.47;;;24.04;89.06
21779;BME280;11050;52.222;20.916;2022-08-19T00:33:32;99793.31;;;24.01;89.20
21779;BME280;11050;52.222;20.916;2022-08-19T00:36:00;99799.66;;;23.98;89.54
21779;BME280;11050;52.222;20.916;2022-08-19T00:38:26;99789.84;;;23.92;90.18
21779;BME280;11050;52.222;20.916;2022-08-19T00:40:52;99797.31;;;23.88;90.56
21779;BME280;11050;52.222;20.916;2022-08-19T00:43:22;99796.03;;;23.85;90.81
21779;BME280;11050;52.222;20.916;2022-08-19T00:45:48;99796.75;;;23.82;91.15
21779;BME280;11050;52.222;20.916;2022-08-19T00:48:17;99779.94;;;23.70;91.29
21779;BME280;11050;52.222;20.916;2022-08-19T00:50:45;99788.94;;;23.76;91.60
21779;BME280;11050;52.222;20.916;2022-08-19T00:53:17;99778.88;;;23.75;91.94
21779;BME280;11050;52.222;20.916;2022-08-19T00:55:51;99784.75;;;23.70;92.11
21779;BME280;11050;52.222;20.916;2022-08-19T00:58:23;99783.91;;;23.69;92.34
21779;BME280;11050;52.222;20.916;2022-08-19T01:00:50;99783.72;;;23.62;92.50
21779;BME280;11050;52.222;20.916;2022-08-19T01:03:19;99793.38;;;23.65;92.99
21779;BME280;11050;52.222;20.916;2022-08-19T01:05:48;99799.34;;;23.63;92.88
21779;BME280;11050;52.222;20.916;2022-08-19T01:08:18;99806.38;;;23.57;94.13
21779;BME280;11050;52.222;20.916;2022-08-19T01:10:51;99802.78;;;23.57;93.82
21779;BME280;11050;52.222;20.916;2022-08-19T01:13:22;99796.69;;;23.55;93.62
21779;BME280;11050;52.222;20.916;2022-08-19T01:16:03;99800.66;;;23.53;93.87
21779;BME280;11050;52.222;20.916;2022-08-19T01:18:32;99805.78;;;23.51;93.56
21779;BME280;11050;52.222;20.916;2022-08-19T01:21:11;99796.91;;;23.49;94.07
21779;BME280;11050;52.222;20.916;2022-08-19T01:23:43;99800.31;;;23.43;94.93
21779;BME280;11050;52.222;20.916;2022-08-19T01:26:22;99818.78;;;23.44;94.53
21779;BME280;11050;52.222;20.916;2022-08-19T01:28:52;99807.56;;;23.44;94.84
21779;BME280;11050;52.222;20.916;2022-08-19T01:31:23;99807.56;;;23.44;94.61
21779;BME280;11050;52.222;20.916;2022-08-19T01:33:52;99804.28;;;23.42;95.03
21779;BME280;11050;52.222;20.916;2022-08-19T01:36:33;99809.78;;;23.38;95.52
21779;BME280;11050;52.222;20.916;2022-08-19T01:39:07;99804.06;;;23.35;95.53
21779;BME280;11050;52.222;20.916;2022-08-19T01:41:35;99797.50;;;23.31;95.71
21779;BME280;11050;52.222;20.916;2022-08-19T01:44:01;99787.78;;;23.28;96.10
21779;BME280;11050;52.222;20.916;2022-08-19T01:46:31;99797.00;;;23.29;96.55
21779;BME280;11050;52.222;20.916;2022-08-19T01:48:57;99782.03;;;23.25;96.61
21779;BME280;11050;52.222;20.916;2022-08-19T01:51:24;99797.25;;;23.24;96.74
21779;BME280;11050;52.222;20.916;2022-08-19T01:53:51;99787.66;;;23.25;96.64
21779;BME280;11050;52.222;20.916;2022-08-19T01:56:19;99789.19;;;23.22;97.08
21779;BME280;11050;52.222;20.916;2022-08-19T01:58:55;99785.56;;;23.22;97.43
21779;BME280;11050;52.222;20.916;2022-08-19T02:01:24;99792.69;;;23.19;97.58
21779;BME280;11050;52.222;20.916;2022-08-19T02:03:50;99787.91;;;23.20;97.18
21779;BME280;11050;52.222;20.916;2022-08-19T02:06:17;99782.66;;;23.18;97.61
21779;BME280;11050;52.222;20.916;2022-08-19T02:08:43;99787.44;;;23.18;97.63
21779;BME280;11050;52.222;20.916;2022-08-19T02:11:32;99783.69;;;23.14;98.17
21779;BME280;11050;52.222;20.916;2022-08-19T02:14:02;99781.72;;;23.14;98.00
21779;BME280;11050;52.222;20.916;2022-08-19T02:16:29;99788.03;;;23.11;98.42
21779;BME280;11050;52.222;20.916;2022-08-19T02:18:56;99775.97;;;23.11;98.01
21779;BME280;11050;52.222;20.916;2022-08-19T02:21:23;99772.00;;;23.12;98.03
21779;BME280;11050;52.222;20.916;2022-08-19T02:23:50;99779.94;;;23.10;98.34
21779;BME280;11050;52.222;20.916;2022-08-19T02:26:17;99776.34;;;23.09;98.13
21779;BME280;11050;52.222;20.916;2022-08-19T02:28:44;99772.25;;;23.07;98.28
21779;BME280;11050;52.222;20.916;2022-08-19T02:31:15;99774.69;;;23.08;98.62
21779;BME280;11050;52.222;20.916;2022-08-19T02:33:41;99768.97;;;23.05;98.71
21779;BME280;11050;52.222;20.916;2022-08-19T02:36:08;99773.41;;;23.06;98.60
21779;BME280;11050;52.222;20.916;2022-08-19T02:38:35;99768.97;;;23.05;98.87
21779;BME280;11050;52.222;20.916;2022-08-19T02:41:07;99773.75;;;23.04;98.82
21779;BME280;11050;52.222;20.916;2022-08-19T02:43:35;99776.56;;;23.04;98.62
21779;BME280;11050;52.222;20.916;2022-08-19T02:46:25;99782.88;;;23.01;98.85
21779;BME280;11050;52.222;20.916;2022-08-19T02:48:58;99786.38;;;22.98;99.03
21779;BME280;11050;52.222;20.916;2022-08-19T02:51:35;99771.41;;;22.94;99.13
21779;BME280;11050;52.222;20.916;2022-08-19T02:54:02;99776.56;;;22.92;99.36
21779;BME280;11050;52.222;20.916;2022-08-19T02:56:30;99779.72;;;22.91;99.05
21779;BME280;11050;52.222;20.916;2022-08-19T02:58:57;99774.44;;;22.89;99.26
21779;BME280;11050;52.222;20.916;2022-08-19T03:01:28;99776.75;;;22.87;99.43
21779;BME280;11050;52.222;20.916;2022-08-19T03:03:59;99770.25;;;22.83;99.76
21779;BME280;11050;52.222;20.916;2022-08-19T03:06:26;99771.03;;;22.84;99.56
21779;BME280;11050;52.222;20.916;2022-08-19T03:08:53;99774.19;;;22.82;100.00
21779;BME280;11050;52.222;20.916;2022-08-19T03:11:27;99778.06;;;22.78;99.83
21779;BME280;11050;52.222;20.916;2022-08-19T03:13:54;99786.47;;;22.78;100.00
21779;BME280;11050;52.222;20.916;2022-08-19T03:16:23;99776.75;;;22.75;100.00
21779;BME280;11050;52.222;20.916;2022-08-19T03:18:51;99771.50;;;22.74;100.00
21779;BME280;11050;52.222;20.916;2022-08-19T03:21:24;99769.50;;;22.74;100.00
21779;BME280;11050;52.222;20.916;2022-08-19T03:23:53;99757.50;;;22.74;100.00
21779;BME280;11050;52.222;20.916;2022-08-19T03:26:19;99771.03;;;22.72;100.00
21779;BME280;11050;52.222;20.916;2022-08-19T03:28:46;99775.47;;;22.73;100.00
21779;BME280;11050;52.222;20.916;2022-08-19T03:31:21;99773.84;;;22.72;100.00
21779;BME280;11050;52.222;20.916;2022-08-19T03:33:49;99784.81;;;22.77;100.00
21779;BME280;11050;52.222;20.916;2022-08-19T03:36:21;99793.69;;;22.79;100.00
21779;BME280;11050;52.222;20.916;2022-08-19T03:38:56;99781.31;;;22.80;100.00
21779;BME280;11050;52.222;20.916;2022-08-19T03:41:27;99786.91;;;22.80;100.00
21779;BME280;11050;52.222;20.916;2022-08-19T03:43:54;99785.41;;;22.82;100.00
21779;BME280;11050;52.222;20.916;2022-08-19T03:46:30;99789.03;;;22.83;100.00
21779;BME280;11050;52.222;20.916;2022-08-19T03:48:59;99803.03;;;22.83;100.00
21779;BME280;11050;52.222;20.916;2022-08-19T03:51:34;99804.34;;;22.85;100.00
21779;BME280;11050;52.222;20.916;2022-08-19T03:54:03;99800.84;;;22.88;99.87
21779;BME280;11050;52.222;20.916;2022-08-19T03:56:30;99804.09;;;22.90;99.77
21779;BME280;11050;52.222;20.916;2022-08-19T03:58:58;99793.03;;;22.94;99.73
21779;BME280;11050;52.222;20.916;2022-08-19T04:01:27;99802.00;;;22.99;99.32
21779;BME280;11050;52.222;20.916;2022-08-19T04:03:56;99808.69;;;23.07;99.16
21779;BME280;11050;52.222;20.916;2022-08-19T04:06:27;99804.84;;;23.11;98.57
21779;BME280;11050;52.222;20.916;2022-08-19T04:08:55;99805.06;;;23.18;98.11
21779;BME280;11050;52.222;20.916;2022-08-19T04:11:26;99797.97;;;23.21;97.60
21779;BME280;11050;52.222;20.916;2022-08-19T04:13:54;99788.84;;;23.24;97.65
21779;BME280;11050;52.222;20.916;2022-08-19T04:16:23;99794.69;;;23.31;97.36
21779;BME280;11050;52.222;20.916;2022-08-19T04:18:50;99796.56;;;23.39;96.68
21779;BME280;11050;52.222;20.916;2022-08-19T04:21:24;99786.41;;;23.46;96.47
21779;BME280;11050;52.222;20.916;2022-08-19T04:23:50;99791.88;;;23.55;95.76
21779;BME280;11050;52.222;20.916;2022-08-19T04:26:28;99803.00;;;23.64;95.23
21779;BME280;11050;52.222;20.916;2022-08-19T04:29:03;99805.19;;;23.70;94.77
21779;BME280;11050;52.222;20.916;2022-08-19T04:31:32;99799.09;;;23.80;94.14
21779;BME280;11050;52.222;20.916;2022-08-19T04:34:04;99800.59;;;23.90;93.63
21779;BME280;11050;52.222;20.916;2022-08-19T04:36:34;99809.50;;;24.04;92.78
21779;BME280;11050;52.222;20.916;2022-08-19T04:39:06;99806.16;;;24.14;92.34
21779;BME280;11050;52.222;20.916;2022-08-19T04:41:32;99807.66;;;24.23;91.08
21779;BME280;11050;52.222;20.916;2022-08-19T04:44:17;99807.38;;;24.40;90.15
21779;BME280;11050;52.222;20.916;2022-08-19T04:46:45;99803.69;;;24.52;89.36
21779;BME280;11050;52.222;20.916;2022-08-19T04:49:14;99793.91;;;24.62;88.53
21779;BME280;11050;52.222;20.916;2022-08-19T04:51:44;99792.25;;;24.73;87.21
21779;BME280;11050;52.222;20.916;2022-08-19T04:54:11;99792.53;;;24.83;86.87
21779;BME280;11050;52.222;20.916;2022-08-19T04:56:40;99798.81;;;24.92;86.04
21779;BME280;11050;52.222;20.916;2022-08-19T04:59:06;99799.34;;;24.98;85.75
21779;BME280;11050;52.222;20.916;2022-08-19T05:01:33;99792.91;;;24.97;85.07
21779;BME280;11050;52.222;20.916;2022-08-19T05:04:01;99796.63;;;25.01;85.13
21779;BME280;11050;52.222;20.916;2022-08-19T05:06:29;99799.91;;;25.03;84.57
21779;BME280;11050;52.222;20.916;2022-08-19T05:08:56;99800.28;;;25.02;84.96
21779;BME280;11050;52.222;20.916;2022-08-19T05:11:29;99800.72;;;25.04;84.64
21779;BME280;11050;52.222;20.916;2022-08-19T05:13:56;99796.25;;;25.03;84.74
21779;BME280;11050;52.222;20.916;2022-08-19T05:16:24;99801.88;;;25.03;85.36
21779;BME280;11050;52.222;20.916;2022-08-19T05:18:51;99796.25;;;25.03;84.90
21779;BME280;11050;52.222;20.916;2022-08-19T05:21:36;99800.81;;;25.07;84.59
21779;BME280;11050;52.222;20.916;2022-08-19T05:24:22;99810.03;;;25.08;84.38
21779;BME280;11050;52.222;20.916;2022-08-19T05:26:51;99808.16;;;25.12;83.75
21779;BME280;11050;52.222;20.916;2022-08-19T05:29:20;99812.50;;;25.25;83.25
21779;BME280;11050;52.222;20.916;2022-08-19T05:31:48;99807.94;;;25.36;82.02
21779;BME280;11050;52.222;20.916;2022-08-19T05:34:20;99815.88;;;25.46;81.74
21779;BME280;11050;52.222;20.916;2022-08-19T05:36:56;99810.41;;;25.53;81.68
21779;BME280;11050;52.222;20.916;2022-08-19T05:39:26;99814.66;;;25.63;81.19
21779;BME280;11050;52.222;20.916;2022-08-19T05:41:58;99828.66;;;25.75;80.34
21779;BME280;11050;52.222;20.916;2022-08-19T05:44:28;99834.88;;;25.84;79.21
21779;BME280;11050;52.222;20.916;2022-08-19T05:47:02;99833.13;;;25.95;78.54
21779;BME280;11050;52.222;20.916;2022-08-19T05:49:31;99837.38;;;26.04;78.75
21779;BME280;11050;52.222;20.916;2022-08-19T05:51:57;99832.75;;;26.12;78.33
21779;BME280;11050;52.222;20.916;2022-08-19T05:54:24;99831.56;;;26.13;78.24
21779;BME280;11050;52.222;20.916;2022-08-19T05:56:53;99831.34;;;26.21;77.51
21779;BME280;11050;52.222;20.916;2022-08-19T05:59:20;99825.22;;;26.35;76.75
21779;BME280;11050;52.222;20.916;2022-08-19T06:01:48;99824.97;;;26.44;75.81
21779;BME280;11050;52.222;20.916;2022-08-19T06:04:17;99819.06;;;26.49;75.56
21779;BME280;11050;52.222;20.916;2022-08-19T06:06:46;99803.03;;;26.53;75.59
21779;BME280;11050;52.222;20.916;2022-08-19T06:09:12;99809.63;;;26.60;74.78
21779;BME280;11050;52.222;20.916;2022-08-19T06:11:51;99803.84;;;26.72;74.19
21779;BME280;11050;52.222;20.916;2022-08-19T06:14:26;99803.69;;;26.84;73.40
21779;BME280;11050;52.222;20.916;2022-08-19T06:16:52;99826.44;;;26.95;72.06
21779;BME280;11050;52.222;20.916;2022-08-19T06:19:21;99824.94;;;27.01;71.46
21779;BME280;11050;52.222;20.916;2022-08-19T06:21:50;99838.00;;;27.09;70.93
21779;BME280;11050;52.222;20.916;2022-08-19T06:24:22;99832.16;;;27.21;70.96
21779;BME280;11050;52.222;20.916;2022-08-19T06:26:51;99837.56;;;27.30;69.12
21779;BME280;11050;52.222;20.916;2022-08-19T06:29:20;99830.50;;;27.39;69.35
21779;BME280;11050;52.222;20.916;2022-08-19T06:31:50;99842.28;;;27.45;69.79
21779;BME280;11050;52.222;20.916;2022-08-19T06:34:17;99840.50;;;27.59;68.35
21779;BME280;11050;52.222;20.916;2022-08-19T06:36:48;99842.31;;;27.71;67.28
21779;BME280;11050;52.222;20.916;2022-08-19T06:39:22;99837.59;;;27.78;67.54
21779;BME280;11050;52.222;20.916;2022-08-19T06:41:53;99837.25;;;27.83;66.41
21779;BME280;11050;52.222;20.916;2022-08-19T06:44:22;99841.81;;;27.91;66.26
21779;BME280;11050;52.222;20.916;2022-08-19T06:46:48;99840.94;;;27.87;66.56
21779;BME280;11050;52.222;20.916;2022-08-19T06:49:16;99847.31;;;27.81;66.78
21779;BME280;11050;52.222;20.916;2022-08-19T06:51:46;99837.88;;;27.70;66.89
21779;BME280;11050;52.222;20.916;2022-08-19T06:54:16;99839.38;;;27.64;67.24
21779;BME280;11050;52.222;20.916;2022-08-19T06:56:44;99828.97;;;27.68;67.89
21779;BME280;11050;52.222;20.916;2022-08-19T06:59:16;99827.53;;;27.81;66.67
21779;BME280;11050;52.222;20.916;2022-08-19T07:01:51;99834.16;;;27.92;66.36
21779;BME280;11050;52.222;20.916;2022-08-19T07:04:36;99834.69;;;27.97;66.09
21779;BME280;11050;52.222;20.916;2022-08-19T07:07:11;99846.50;;;28.06;65.97
21779;BME280;11050;52.222;20.916;2022-08-19T07:09:43;99839.00;;;28.18;65.20
21779;BME280;11050;52.222;20.916;2022-08-19T07:12:12;99847.56;;;28.25;64.52
21779;BME280;11050;52.222;20.916;2022-08-19T07:14:39;99848.00;;;28.27;65.10
21779;BME280;11050;52.222;20.916;2022-08-19T07:17:10;99848.47;;;28.32;64.63
21779;BME280;11050;52.222;20.916;2022-08-19T07:19:38;99842.53;;;28.41;64.38
21779;BME280;11050;52.222;20.916;2022-08-19T07:22:07;99854.88;;;28.55;64.35
21779;BME280;11050;52.222;20.916;2022-08-19T07:24:38;99840.50;;;28.67;63.65
21779;BME280;11050;52.222;20.916;2022-08-19T07:27:06;99836.94;;;28.77;64.36
21779;BME280;11050;52.222;20.916;2022-08-19T07:29:34;99826.13;;;28.83;64.19
21779;BME280;11050;52.222;20.916;2022-08-19T07:32:03;99827.38;;;28.89;63.18
21779;BME280;11050;52.222;20.916;2022-08-19T07:34:31;99830.78;;;29.02;62.74
21779;BME280;11050;52.222;20.916;2022-08-19T07:36:59;99810.63;;;29.10;62.04
21779;BME280;11050;52.222;20.916;2022-08-19T07:39:31;99825.31;;;29.23;61.52
21779;BME280;11050;52.222;20.916;2022-08-19T07:42:01;99834.84;;;29.44;61.81
21779;BME280;11050;52.222;20.916;2022-08-19T07:44:28;99843.03;;;29.56;60.54
21779;BME280;11050;52.222;20.916;2022-08-19T07:46:56;99841.03;;;29.60;60.43
21779;BME280;11050;52.222;20.916;2022-08-19T07:49:23;99831.75;;;29.63;60.30
21779;BME280;11050;52.222;20.916;2022-08-19T07:51:57;99840.25;;;29.63;60.14
21779;BME280;11050;52.222;20.916;2022-08-19T07:54:25;99842.28;;;29.66;59.93
21779;BME280;11050;52.222;20.916;2022-08-19T07:56:52;99835.44;;;29.67;60.28
21779;BME280;11050;52.222;20.916;2022-08-19T07:59:20;99837.44;;;29.67;61.01
21779;BME280;11050;52.222;20.916;2022-08-19T08:01:47;99822.88;;;29.65;59.40
21779;BME280;11050;52.222;20.916;2022-08-19T08:04:13;99832.59;;;29.67;59.57
21779;BME280;11050;52.222;20.916;2022-08-19T08:06:58;99820.94;;;29.76;60.58
21779;BME280;11050;52.222;20.916;2022-08-19T08:09:44;99830.72;;;29.82;59.83
21779;BME280;11050;52.222;20.916;2022-08-19T08:12:27;99825.88;;;29.86;60.36
21779;BME280;11050;52.222;20.916;2022-08-19T08:14:58;99827.94;;;29.92;58.60
21779;BME280;11050;52.222;20.916;2022-08-19T08:17:28;99827.19;;;29.99;59.10
21779;BME280;11050;52.222;20.916;2022-08-19T08:19:55;99841.47;;;30.17;59.41
21779;BME280;11050;52.222;20.916;2022-08-19T08:22:23;99850.91;;;30.31;58.98
21779;BME280;11050;52.222;20.916;2022-08-19T08:25:14;99854.19;;;30.44;58.25
21779;BME280;11050;52.222;20.916;2022-08-19T08:27:44;99849.00;;;30.56;57.68
21779;BME280;11050;52.222;20.916;2022-08-19T08:30:22;99836.47;;;30.68;57.30
21779;BME280;11050;52.222;20.916;2022-08-19T08:32:49;99843.38;;;30.74;56.88
21779;BME280;11050;52.222;20.916;2022-08-19T08:35:20;99846.22;;;30.74;57.04
21779;BME280;11050;52.222;20.916;2022-08-19T08:37:49;99844.22;;;30.78;57.81
21779;BME280;11050;52.222;20.916;2022-08-19T08:43:35;99839.88;;;31.12;57.06
21779;BME280;11050;52.222;20.916;2022-08-19T08:46:16;99843.13;;;31.11;56.63
21779;BME280;11050;52.222;20.916;2022-08-19T08:51:40;99853.28;;;31.22;54.94
21779;BME280;11050;52.222;20.916;2022-08-19T08:54:12;99861.38;;;31.20;56.08
21779;BME280;11050;52.222;20.916;2022-08-19T08:56:43;99872.41;;;31.39;56.16
21779;BME280;11050;52.222;20.916;2022-08-19T08:59:31;99864.28;;;31.59;56.45
21779;BME280;11050;52.222;20.916;2022-08-19T09:02:00;99871.59;;;31.67;55.78
21779;BME280;11050;52.222;20.916;2022-08-19T09:04:26;99859.81;;;31.72;55.02
21779;BME280;11050;52.222;20.916;2022-08-19T09:09:44;99849.69;;;31.75;54.67
21779;BME280;11050;52.222;20.916;2022-08-19T09:15:18;99856.16;;;31.86;52.87
21779;BME280;11050;52.222;20.916;2022-08-19T09:17:48;99869.19;;;31.97;51.96
21779;BME280;11050;52.222;20.916;2022-08-19T09:20:23;99866.72;;;32.03;50.05
21779;BME280;11050;52.222;20.916;2022-08-19T09:22:49;99871.59;;;32.13;51.01
21779;BME280;11050;52.222;20.916;2022-08-19T09:25:20;99858.97;;;32.28;51.08
21779;BME280;11050;52.222;20.916;2022-08-19T09:27:51;99865.84;;;32.41;50.18
21779;BME280;11050;52.222;20.916;2022-08-19T09:30:28;99864.63;;;32.45;49.40
21779;BME280;11050;52.222;20.916;2022-08-19T09:32:55;99873.94;;;32.53;49.69
21779;BME280;11050;52.222;20.916;2022-08-19T09:35:25;99873.91;;;32.56;46.78
21779;BME280;11050;52.222;20.916;2022-08-19T09:37:53;99882.09;;;32.54;46.42
21779;BME280;11050;52.222;20.916;2022-08-19T09:40:19;99884.50;;;32.56;45.80
21779;BME280;11050;52.222;20.916;2022-08-19T09:42:46;99874.31;;;32.58;47.06
21779;BME280;11050;52.222;20.916;2022-08-19T09:45:14;99879.13;;;32.76;48.75
21779;BME280;11050;52.222;20.916;2022-08-19T09:47:40;99878.66;;;32.98;46.50
21779;BME280;11050;52.222;20.916;2022-08-19T09:50:10;99884.31;;;33.09;44.33
21779;BME280;11050;52.222;20.916;2022-08-19T09:52:37;99881.03;;;33.10;44.99
21779;BME280;11050;52.222;20.916;2022-08-19T09:55:08;99884.31;;;33.02;43.77
21779;BME280;11050;52.222;20.916;2022-08-19T09:57:35;99875.41;;;32.96;44.46
21779;BME280;11050;52.222;20.916;2022-08-19T10:00:04;99868.78;;;33.13;45.03
21779;BME280;11050;52.222;20.916;2022-08-19T10:02:30;99867.06;;;33.33;45.19
21779;BME280;11050;52.222;20.916;2022-08-19T10:04:56;99876.75;;;33.46;45.56
21779;BME280;11050;52.222;20.916;2022-08-19T10:07:41;99866.53;;;33.53;43.84
21779;BME280;11050;52.222;20.916;2022-08-19T10:10:07;99859.53;;;33.61;43.64
21779;BME280;11050;52.222;20.916;2022-08-19T10:12:35;99865.16;;;33.71;42.19
21779;BME280;11050;52.222;20.916;2022-08-19T10:15:02;99860.13;;;33.86;43.45
21779;BME280;11050;52.222;20.916;2022-08-19T10:17:29;99862.88;;;34.00;42.44
21779;BME280;11050;52.222;20.916;2022-08-19T10:19:55;99854.25;;;34.07;43.06
21779;BME280;11050;52.222;20.916;2022-08-19T10:22:21;99859.81;;;34.21;42.42
21779;BME280;11050;52.222;20.916;2022-08-19T10:24:47;99858.13;;;34.27;41.78
21779;BME280;11050;52.222;20.916;2022-08-19T10:27:14;99855.94;;;34.38;42.56
21779;BME280;11050;52.222;20.916;2022-08-19T10:29:40;99849.69;;;34.54;41.33
21779;BME280;11050;52.222;20.916;2022-08-19T10:32:08;99855.19;;;34.71;41.67
21779;BME280;11050;52.222;20.916;2022-08-19T10:34:36;99864.41;;;34.82;40.74
21779;BME280;11050;52.222;20.916;2022-08-19T10:37:05;99854.97;;;34.85;40.06
21779;BME280;11050;52.222;20.916;2022-08-19T10:39:35;99860.59;;;34.96;39.68
21779;BME280;11050;52.222;20.916;2022-08-19T10:42:06;99859.94;;;35.11;39.49
21779;BME280;11050;52.222;20.916;2022-08-19T10:44:33;99859.25;;;35.30;39.57
21779;BME280;11050;52.222;20.916;2022-08-19T10:47:02;99853.75;;;35.47;38.40
21779;BME280;11050;52.222;20.916;2022-08-19T10:49:27;99867.66;;;35.68;36.84
21779;BME280;11050;52.222;20.916;2022-08-19T10:51:54;99862.22;;;35.77;37.73
21779;BME280;11050;52.222;20.916;2022-08-19T10:54:39;99862.41;;;35.89;35.23
21779;BME280;11050;52.222;20.916;2022-08-19T10:57:23;99853.34;;;35.94;36.14
21779;BME280;11050;52.222;20.916;2022-08-19T10:59:55;99864.03;;;36.13;36.60
21779;BME280;11050;52.222;20.916;2022-08-19T11:02:22;99861.91;;;36.41;35.37
21779;BME280;11050;52.222;20.916;2022-08-19T11:04:48;99848.84;;;36.59;34.35
21779;BME280;11050;52.222;20.916;2022-08-19T11:07:15;99854.00;;;36.87;33.67
21779;BME280;11050;52.222;20.916;2022-08-19T11:09:42;99841.06;;;37.15;32.68
21779;BME280;11050;52.222;20.916;2022-08-19T11:12:09;99837.34;;;37.34;31.92
21779;BME280;11050;52.222;20.916;2022-08-19T11:14:36;99842.59;;;37.55;31.67
21779;BME280;11050;52.222;20.916;2022-08-19T11:17:04;99839.28;;;37.89;31.96
21779;BME280;11050;52.222;20.916;2022-08-19T11:19:31;99832.06;;;38.13;31.09
21779;BME280;11050;52.222;20.916;2022-08-19T11:21:57;99831.81;;;38.52;31.24
21779;BME280;11050;52.222;20.916;2022-08-19T11:24:29;99832.81;;;38.87;30.91
21779;BME280;11050;52.222;20.916;2022-08-19T11:27:08;99830.13;;;39.09;29.46
21779;BME280;11050;52.222;20.916;2022-08-19T11:29:38;99838.16;;;39.26;29.66
21779;BME280;11050;52.222;20.916;2022-08-19T11:32:09;99828.38;;;39.49;29.40
21779;BME280;11050;52.222;20.916;2022-08-19T11:34:36;99825.34;;;39.90;30.03
21779;BME280;11050;52.222;20.916;2022-08-19T11:37:03;99829.28;;;40.30;28.81
21779;BME280;11050;52.222;20.916;2022-08-19T11:39:31;99825.28;;;40.49;28.32
21779;BME280;11050;52.222;20.916;2022-08-19T11:41:58;99819.78;;;40.64;28.39
21779;BME280;11050;52.222;20.916;2022-08-19T11:44:25;99809.88;;;40.87;27.77
21779;BME280;11050;52.222;20.916;2022-08-19T11:46:52;99816.81;;;41.20;27.57
21779;BME280;11050;52.222;20.916;2022-08-19T11:49:19;99810.19;;;41.50;27.19
21779;BME280;11050;52.222;20.916;2022-08-19T11:51:47;99812.22;;;41.71;26.61
21779;BME280;11050;52.222;20.916;2022-08-19T11:54:16;99799.88;;;41.98;25.25
21779;BME280;11050;52.222;20.916;2022-08-19T11:56:43;99797.19;;;42.12;25.27
21779;BME280;11050;52.222;20.916;2022-08-19T11:59:11;99797.84;;;42.44;24.91
21779;BME280;11050;52.222;20.916;2022-08-19T12:01:37;99793.97;;;42.37;24.42
21779;BME280;11050;52.222;20.916;2022-08-19T12:04:03;99794.00;;;42.47;24.53
21779;BME280;11050;52.222;20.916;2022-08-19T12:06:33;99797.00;;;42.70;23.22
21779;BME280;11050;52.222;20.916;2022-08-19T12:09:05;99795.69;;;42.89;23.17
21779;BME280;11050;52.222;20.916;2022-08-19T12:11:32;99785.53;;;43.03;24.07
21779;BME280;11050;52.222;20.916;2022-08-19T12:13:58;99793.50;;;43.17;24.04
21779;BME280;11050;52.222;20.916;2022-08-19T12:16:27;99793.41;;;43.44;24.36
21779;BME280;11050;52.222;20.916;2022-08-19T12:18:55;99791.91;;;43.49;23.03
21779;BME280;11050;52.222;20.916;2022-08-19T12:21:26;99789.34;;;43.60;22.84
21779;BME280;11050;52.222;20.916;2022-08-19T12:23:56;99781.69;;;43.95;22.55
21779;BME280;11050;52.222;20.916;2022-08-19T12:26:24;99773.25;;;44.06;22.80
21779;BME280;11050;52.222;20.916;2022-08-19T12:28:50;99777.84;;;44.36;23.28
21779;BME280;11050;52.222;20.916;2022-08-19T12:31:17;99769.66;;;44.49;22.63
21779;BME280;11050;52.222;20.916;2022-08-19T12:33:46;99773.97;;;44.68;21.86
21779;BME280;11050;52.222;20.916;2022-08-19T12:36:14;99767.78;;;44.75;21.75
21779;BME280;11050;52.222;20.916;2022-08-19T12:38:42;99765.69;;;44.76;22.40
21779;BME280;11050;52.222;20.916;2022-08-19T12:41:12;99769.47;;;44.96;21.93
21779;BME280;11050;52.222;20.916;2022-08-19T12:43:38;99754.25;;;45.16;21.45
21779;BME280;11050;52.222;20.916;2022-08-19T12:46:06;99765.03;;;45.30;21.07
21779;BME280;11050;52.222;20.916;2022-08-19T12:48:32;99758.78;;;45.37;20.57
21779;BME280;11050;52.222;20.916;2022-08-19T12:50:59;99748.28;;;45.40;19.92
21779;BME280;11050;52.222;20.916;2022-08-19T12:53:25;99756.19;;;45.39;20.45
21779;BME280;11050;52.222;20.916;2022-08-19T12:55:58;99763.28;;;45.53;20.24
21779;BME280;11050;52.222;20.916;2022-08-19T12:58:26;99751.78;;;45.44;20.74
21779;BME280;11050;52.222;20.916;2022-08-19T13:00:53;99752.75;;;45.55;20.88
21779;BME280;11050;52.222;20.916;2022-08-19T13:03:19;99751.28;;;45.65;19.72
21779;BME280;11050;52.222;20.916;2022-08-19T13:05:45;99756.78;;;45.43;20.96
21779;BME280;11050;52.222;20.916;2022-08-19T13:08:11;99755.97;;;45.57;19.82
21779;BME280;11050;52.222;20.916;2022-08-19T13:10:37;99760.44;;;45.58;19.63
21779;BME280;11050;52.222;20.916;2022-08-19T13:13:07;99749.50;;;45.33;19.96
21779;BME280;11050;52.222;20.916;2022-08-19T13:15:36;99746.22;;;45.26;20.85